createdAt,value
2022-10-22T00:00:16.606Z,0
2022-10-22T00:01:16.596Z,0
2022-10-22T00:02:16.699Z,0
2022-10-22T00:03:16.602Z,0
2022-10-22T00:04:16.611Z,0
2022-10-22T00:05:16.592Z,0
2022-10-22T00:06:16.610Z,0
2022-10-22T00:07:16.610Z,0
2022-10-22T00:08:16.619Z,0
2022-10-22T00:09:16.707Z,0
2022-10-22T00:10:16.603Z,0
2022-10-22T00:11:16.609Z,0
2022-10-22T00:12:16.612Z,0
2022-10-22T00:13:16.619Z,0
2022-10-22T00:14:16.611Z,0
2022-10-22T00:15:16.611Z,0
2022-10-22T00:16:16.614Z,0
2022-10-22T00:17:16.607Z,0
2022-10-22T00:18:16.789Z,0
2022-10-22T00:19:16.602Z,0
2022-10-22T00:20:16.616Z,0
2022-10-22T00:21:16.625Z,0
2022-10-22T00:22:16.606Z,0
2022-10-22T00:23:16.615Z,0
2022-10-22T00:24:16.622Z,0
2022-10-22T00:25:16.605Z,0
2022-10-22T00:26:16.606Z,0
2022-10-22T00:27:16.607Z,0
2022-10-22T00:28:16.622Z,0
2022-10-22T00:29:16.624Z,0
2022-10-22T00:30:16.608Z,0
2022-10-22T00:31:16.604Z,0
2022-10-22T00:32:16.602Z,0
2022-10-22T00:33:16.622Z,0
2022-10-22T00:34:16.609Z,0
2022-10-22T00:35:16.611Z,0
2022-10-22T00:36:16.588Z,0
2022-10-22T00:37:16.612Z,0
2022-10-22T00:38:16.622Z,0
2022-10-22T00:39:16.611Z,0
2022-10-22T00:40:16.615Z,0
2022-10-22T00:41:16.606Z,0
2022-10-22T00:42:16.611Z,0
2022-10-22T00:43:16.617Z,0
2022-10-22T00:44:16.618Z,0
2022-10-22T00:45:16.596Z,0
2022-10-22T00:46:16.609Z,0
2022-10-22T00:47:16.609Z,0
2022-10-22T00:48:16.621Z,0
2022-10-22T00:49:16.600Z,0
2022-10-22T00:50:16.678Z,0
2022-10-22T00:51:16.605Z,0
2022-10-22T00:52:16.615Z,0
2022-10-22T00:53:16.619Z,0
2022-10-22T00:54:16.609Z,0
2022-10-22T00:55:16.596Z,0
2022-10-22T00:56:16.603Z,0
2022-10-22T00:57:16.597Z,0
2022-10-22T00:58:16.609Z,0
2022-10-22T00:59:16.660Z,0
2022-10-22T01:00:16.614Z,0
2022-10-22T01:01:16.673Z,0
2022-10-22T01:02:16.591Z,0
2022-10-22T01:03:16.607Z,0
2022-10-22T01:04:16.594Z,0
2022-10-22T01:05:16.667Z,0
2022-10-22T01:06:16.588Z,0
2022-10-22T01:07:16.614Z,0
2022-10-22T01:08:16.608Z,0
2022-10-22T01:09:16.583Z,0
2022-10-22T01:10:16.629Z,0
2022-10-22T01:11:16.584Z,0
2022-10-22T01:12:16.589Z,0
2022-10-22T01:13:16.607Z,0
2022-10-22T01:14:16.618Z,0
2022-10-22T01:15:16.599Z,0
2022-10-22T01:16:16.670Z,0
2022-10-22T01:17:16.656Z,0
2022-10-22T01:18:16.610Z,0
2022-10-22T01:19:16.601Z,0
2022-10-22T01:20:16.606Z,0
2022-10-22T01:21:16.606Z,0
2022-10-22T01:22:16.607Z,0
2022-10-22T01:23:16.617Z,0
2022-10-22T01:24:16.639Z,0
2022-10-22T01:25:16.598Z,0
2022-10-22T01:26:16.687Z,0
2022-10-22T01:27:16.604Z,0
2022-10-22T01:28:16.617Z,0
2022-10-22T01:29:16.627Z,0
2022-10-22T01:30:16.623Z,0
2022-10-22T01:31:16.614Z,0
2022-10-22T01:32:16.598Z,0
2022-10-22T01:33:16.619Z,0
2022-10-22T01:34:16.618Z,0
2022-10-22T01:35:16.673Z,0
2022-10-22T01:36:16.611Z,0
2022-10-22T01:37:16.612Z,0
2022-10-22T01:38:16.618Z,0
2022-10-22T01:39:16.612Z,0
2022-10-22T01:40:16.674Z,0
2022-10-22T01:41:16.608Z,0
2022-10-22T01:42:16.619Z,0
2022-10-22T01:43:16.619Z,0
2022-10-22T01:44:16.617Z,0
2022-10-22T01:45:16.605Z,0
2022-10-22T01:46:16.604Z,0
2022-10-22T01:47:16.606Z,0
2022-10-22T01:48:16.606Z,0
2022-10-22T01:49:16.604Z,0
2022-10-22T01:50:16.606Z,0
2022-10-22T01:51:16.602Z,0
2022-10-22T01:52:16.640Z,0
2022-10-22T01:53:16.617Z,0
2022-10-22T01:54:16.607Z,0
2022-10-22T01:55:16.606Z,0
2022-10-22T01:56:16.603Z,0
2022-10-22T01:57:16.611Z,0
2022-10-22T01:58:16.640Z,0
2022-10-22T01:59:16.706Z,0
2022-10-22T02:00:16.605Z,0
2022-10-22T02:01:16.612Z,0
2022-10-22T02:02:16.594Z,0
2022-10-22T02:03:18.707Z,0
2022-10-22T02:04:16.584Z,0
2022-10-22T02:05:16.619Z,0
2022-10-22T02:06:16.603Z,0
2022-10-22T02:07:16.597Z,0
2022-10-22T02:08:16.608Z,0
2022-10-22T02:09:16.655Z,0
2022-10-22T02:10:16.593Z,0
2022-10-22T02:11:16.593Z,0
2022-10-22T02:12:16.586Z,0
2022-10-22T02:13:16.610Z,0
2022-10-22T02:14:16.600Z,0
2022-10-22T02:15:16.591Z,0
2022-10-22T02:16:16.591Z,0
2022-10-22T02:17:16.588Z,0
2022-10-22T02:18:16.689Z,0
2022-10-22T02:19:16.585Z,0
2022-10-22T02:20:16.589Z,0
2022-10-22T02:21:16.595Z,0
2022-10-22T02:22:16.588Z,0
2022-10-22T02:23:16.611Z,0
2022-10-22T02:24:16.586Z,0
2022-10-22T02:25:16.588Z,0
2022-10-22T02:26:16.588Z,0
2022-10-22T02:27:16.607Z,0
2022-10-22T02:28:16.617Z,0
2022-10-22T02:29:16.615Z,0
2022-10-22T02:31:16.619Z,0
2022-10-22T02:32:16.602Z,0
2022-10-22T02:33:16.619Z,0
2022-10-22T02:34:16.617Z,0
2022-10-22T02:35:16.614Z,0
2022-10-22T02:36:16.605Z,0
2022-10-22T02:37:16.599Z,0
2022-10-22T02:38:16.623Z,0
2022-10-22T02:40:16.604Z,0
2022-10-22T02:41:16.601Z,0
2022-10-22T02:42:16.596Z,0
2022-10-22T02:43:16.618Z,0
2022-10-22T02:44:16.615Z,0
2022-10-22T02:45:16.605Z,0
2022-10-22T02:46:16.609Z,0
2022-10-22T02:47:16.630Z,0
2022-10-22T02:48:16.694Z,0
2022-10-22T02:49:16.648Z,0
2022-10-22T02:50:16.642Z,0
2022-10-22T02:51:16.600Z,0
2022-10-22T02:52:16.608Z,0
2022-10-22T02:53:16.620Z,0
2022-10-22T02:54:16.597Z,0
2022-10-22T02:55:16.608Z,0
2022-10-22T02:56:16.627Z,0
2022-10-22T02:57:16.704Z,0
2022-10-22T02:58:16.616Z,0
2022-10-22T02:59:16.612Z,0
2022-10-22T03:00:16.597Z,0
2022-10-22T03:01:16.728Z,0
2022-10-22T03:02:16.605Z,0
2022-10-22T03:03:16.618Z,0
2022-10-22T03:04:16.603Z,0
2022-10-22T03:05:16.625Z,0
2022-10-22T03:06:16.672Z,0
2022-10-22T03:07:16.600Z,0
2022-10-22T03:08:16.623Z,0
2022-10-22T03:09:20.042Z,0
2022-10-22T03:10:16.604Z,0
2022-10-22T03:11:16.596Z,0
2022-10-22T03:12:16.607Z,0
2022-10-22T03:13:16.618Z,0
2022-10-22T03:14:16.622Z,0
2022-10-22T03:15:16.684Z,0
2022-10-22T03:16:16.606Z,0
2022-10-22T03:17:16.598Z,0
2022-10-22T03:18:16.610Z,0
2022-10-22T03:19:16.602Z,0
2022-10-22T03:20:16.616Z,0
2022-10-22T03:21:16.591Z,0
2022-10-22T03:22:16.597Z,0
2022-10-22T03:23:16.618Z,0
2022-10-22T03:24:16.601Z,0
2022-10-22T03:25:16.592Z,0
2022-10-22T03:26:16.590Z,0
2022-10-22T03:27:16.591Z,0
2022-10-22T03:28:16.606Z,0
2022-10-22T03:29:16.857Z,0
2022-10-22T03:30:16.634Z,0
2022-10-22T03:31:16.609Z,0
2022-10-22T03:32:16.604Z,0
2022-10-22T03:33:16.613Z,0
2022-10-22T03:34:16.592Z,0
2022-10-22T03:35:16.613Z,0
2022-10-22T03:36:16.593Z,0
2022-10-22T03:37:16.599Z,0
2022-10-22T03:38:16.606Z,0
2022-10-22T03:39:16.603Z,0
2022-10-22T03:40:16.620Z,0
2022-10-22T03:41:16.602Z,0
2022-10-22T03:42:16.621Z,0
2022-10-22T03:43:16.627Z,0
2022-10-22T03:44:16.616Z,0
2022-10-22T03:45:16.603Z,0
2022-10-22T03:46:16.602Z,0
2022-10-22T03:47:16.613Z,0
2022-10-22T03:48:16.608Z,0
2022-10-22T03:49:16.601Z,0
2022-10-22T03:50:16.601Z,0
2022-10-22T03:51:16.614Z,0
2022-10-22T03:52:16.613Z,0
2022-10-22T03:53:16.614Z,0
2022-10-22T03:54:16.592Z,0
2022-10-22T03:55:16.608Z,0
2022-10-22T03:56:16.601Z,0
2022-10-22T03:57:16.610Z,0
2022-10-22T03:58:16.615Z,0
2022-10-22T03:59:16.618Z,0
2022-10-22T04:00:16.617Z,0
2022-10-22T04:01:16.649Z,0
2022-10-22T04:02:16.609Z,0
2022-10-22T04:03:16.624Z,0
2022-10-22T04:04:16.609Z,0
2022-10-22T04:05:16.608Z,0
2022-10-22T04:06:16.605Z,0
2022-10-22T04:07:16.609Z,0
2022-10-22T04:08:16.617Z,0
2022-10-22T04:09:16.681Z,0
2022-10-22T04:10:16.593Z,0
2022-10-22T04:11:16.591Z,0
2022-10-22T04:12:16.603Z,0
2022-10-22T04:13:16.616Z,0
2022-10-22T04:14:16.613Z,0
2022-10-22T04:15:16.605Z,0
2022-10-22T04:16:16.613Z,0
2022-10-22T04:17:16.606Z,0
2022-10-22T04:18:16.620Z,0
2022-10-22T04:19:16.588Z,0
2022-10-22T04:20:16.614Z,0
2022-10-22T04:21:16.603Z,0
2022-10-22T04:22:16.596Z,0
2022-10-22T04:23:16.619Z,0
2022-10-22T04:24:16.602Z,0
2022-10-22T04:25:16.606Z,0
2022-10-22T04:26:16.604Z,0
2022-10-22T04:27:16.600Z,0
2022-10-22T04:28:16.636Z,0
2022-10-22T04:29:16.644Z,0
2022-10-22T04:30:16.596Z,0
2022-10-22T04:31:16.637Z,0
2022-10-22T04:32:16.608Z,0
2022-10-22T04:33:16.606Z,0
2022-10-22T04:34:16.586Z,0
2022-10-22T04:35:16.715Z,0
2022-10-22T04:36:16.582Z,0
2022-10-22T04:37:16.591Z,0
2022-10-22T04:38:16.605Z,0
2022-10-22T04:39:16.582Z,0
2022-10-22T04:40:16.599Z,0
2022-10-22T04:41:16.590Z,0
2022-10-22T04:42:16.595Z,0
2022-10-22T04:43:16.607Z,0
2022-10-22T04:44:17.253Z,0
2022-10-22T04:45:16.590Z,0
2022-10-22T04:46:16.588Z,0
2022-10-22T04:47:16.590Z,0
2022-10-22T04:48:16.607Z,0
2022-10-22T04:49:16.585Z,0
2022-10-22T04:50:16.600Z,0
2022-10-22T04:51:16.597Z,0
2022-10-22T04:52:16.591Z,0
2022-10-22T04:53:16.617Z,0
2022-10-22T04:54:16.609Z,0
2022-10-22T04:55:16.606Z,0
2022-10-22T04:56:16.633Z,0
2022-10-22T04:57:16.607Z,0
2022-10-22T04:58:16.613Z,0
2022-10-22T04:59:16.618Z,0
2022-10-22T05:00:16.637Z,0
2022-10-22T05:01:16.693Z,0
2022-10-22T05:02:16.600Z,0
2022-10-22T05:03:16.615Z,0
2022-10-22T05:04:16.612Z,0
2022-10-22T05:05:16.654Z,0
2022-10-22T05:06:16.605Z,0
2022-10-22T05:07:16.605Z,0
2022-10-22T05:08:16.615Z,0
2022-10-22T05:09:16.665Z,0
2022-10-22T05:10:16.610Z,0
2022-10-22T05:11:16.605Z,0
2022-10-22T05:12:16.601Z,0
2022-10-22T05:13:16.609Z,0
2022-10-22T05:14:16.625Z,0
2022-10-22T05:15:16.597Z,0
2022-10-22T05:16:16.631Z,0
2022-10-22T05:17:16.598Z,0
2022-10-22T05:18:18.999Z,0
2022-10-22T05:19:16.606Z,0
2022-10-22T05:20:16.588Z,0
2022-10-22T05:21:16.609Z,0
2022-10-22T05:22:16.593Z,0
2022-10-22T05:23:16.607Z,0
2022-10-22T05:24:16.608Z,0
2022-10-22T05:25:16.607Z,0
2022-10-22T05:26:16.606Z,0
2022-10-22T05:27:16.614Z,0
2022-10-22T05:28:16.614Z,0
2022-10-22T05:29:16.629Z,0
2022-10-22T05:30:16.594Z,0
2022-10-22T05:31:16.603Z,0
2022-10-22T05:32:16.607Z,0
2022-10-22T05:33:18.762Z,0
2022-10-22T05:34:16.599Z,0
2022-10-22T05:35:16.607Z,0
2022-10-22T05:36:16.598Z,0
2022-10-22T05:37:16.604Z,0
2022-10-22T05:38:16.604Z,0
2022-10-22T05:39:16.610Z,0
2022-10-22T05:40:26.510Z,0
2022-10-22T05:41:16.602Z,0
2022-10-22T05:42:16.609Z,0
2022-10-22T05:43:16.616Z,0
2022-10-22T05:44:16.612Z,0
2022-10-22T05:45:16.596Z,0
2022-10-22T05:46:21.262Z,0
2022-10-22T05:47:16.598Z,0
2022-10-22T05:48:16.595Z,0
2022-10-22T05:49:16.592Z,0
2022-10-22T05:50:16.598Z,0.01
2022-10-22T05:51:16.585Z,0.01
2022-10-22T05:52:16.589Z,0.01
2022-10-22T05:53:16.597Z,0.01
2022-10-22T05:54:16.583Z,0.01
2022-10-22T05:55:16.593Z,0.01
2022-10-22T05:56:16.582Z,0.01
2022-10-22T05:57:16.592Z,0.01
2022-10-22T05:58:16.596Z,0.01
2022-10-22T05:59:16.599Z,0.01
2022-10-22T06:00:16.660Z,0.01
2022-10-22T06:01:16.593Z,0.01
2022-10-22T06:02:16.667Z,0.01
2022-10-22T06:03:16.598Z,0.01
2022-10-22T06:04:16.584Z,0.01
2022-10-22T06:05:16.593Z,0.01
2022-10-22T06:06:16.582Z,0.01
2022-10-22T06:07:16.610Z,0.01
2022-10-22T06:08:18.950Z,0.01
2022-10-22T06:09:16.602Z,0.01
2022-10-22T06:10:16.588Z,0.02
2022-10-22T06:11:16.613Z,0.02
2022-10-22T06:12:16.605Z,0.02
2022-10-22T06:13:16.619Z,0.02
2022-10-22T06:14:16.625Z,0.02
2022-10-22T06:15:16.598Z,0.02
2022-10-22T06:16:16.612Z,0.02
2022-10-22T06:17:16.596Z,0.02
2022-10-22T06:18:16.619Z,0.02
2022-10-22T06:19:16.610Z,0.03
2022-10-22T06:20:16.586Z,0.03
2022-10-22T06:21:16.650Z,0.03
2022-10-22T06:22:16.597Z,0.03
2022-10-22T06:23:16.612Z,0.03
2022-10-22T06:24:16.642Z,0.03
2022-10-22T06:25:16.603Z,0.03
2022-10-22T06:26:16.610Z,0.03
2022-10-22T06:27:16.604Z,0.03
2022-10-22T06:28:16.705Z,0.04
2022-10-22T06:29:16.637Z,0.04
2022-10-22T06:30:16.593Z,0.04
2022-10-22T06:31:16.609Z,0.04
2022-10-22T06:32:16.605Z,0.05
2022-10-22T06:33:16.616Z,0.06
2022-10-22T06:34:16.608Z,0.06
2022-10-22T06:35:16.600Z,0.07
2022-10-22T06:36:16.605Z,0.07
2022-10-22T06:37:16.601Z,0.08
2022-10-22T06:38:16.618Z,0.09
2022-10-22T06:39:16.606Z,0.1
2022-10-22T06:40:16.616Z,0.1
2022-10-22T06:41:16.687Z,0.11
2022-10-22T06:42:16.605Z,0.11
2022-10-22T06:43:16.618Z,0.12
2022-10-22T06:44:16.630Z,0.12
2022-10-22T06:45:16.599Z,0.13
2022-10-22T06:46:19.175Z,0.13
2022-10-22T06:47:16.615Z,0.14
2022-10-22T06:48:16.621Z,0.14
2022-10-22T06:49:16.601Z,0.14
2022-10-22T06:50:16.585Z,0.14
2022-10-22T06:51:16.595Z,0.13
2022-10-22T06:52:16.618Z,0.13
2022-10-22T06:53:16.698Z,0.13
2022-10-22T06:54:16.606Z,0.13
2022-10-22T06:55:16.601Z,0.13
2022-10-22T06:56:16.600Z,0.13
2022-10-22T06:57:16.612Z,0.13
2022-10-22T06:58:16.611Z,0.13
2022-10-22T06:59:16.620Z,0.13
2022-10-22T07:00:16.590Z,0.13
2022-10-22T07:01:16.643Z,0.13
2022-10-22T07:02:16.588Z,0.13
2022-10-22T07:03:16.609Z,0.14
2022-10-22T07:04:16.589Z,0.14
2022-10-22T07:05:16.659Z,0.15
2022-10-22T07:06:16.584Z,0.16
2022-10-22T07:07:16.585Z,0.17
2022-10-22T07:08:16.600Z,0.19
2022-10-22T07:10:16.588Z,0.22
2022-10-22T07:11:16.598Z,0.23
2022-10-22T07:12:16.590Z,0.23
2022-10-22T07:13:16.599Z,0.24
2022-10-22T07:14:16.605Z,0.24
2022-10-22T07:15:16.588Z,0.25
2022-10-22T07:16:16.595Z,0.26
2022-10-22T07:17:16.603Z,0.27
2022-10-22T07:18:16.598Z,0.27
2022-10-22T07:19:16.583Z,0.27
2022-10-22T07:20:16.583Z,0.26
2022-10-22T07:21:16.609Z,0.25
2022-10-22T07:22:16.604Z,0.23
2022-10-22T07:23:16.609Z,0.2
2022-10-22T07:24:16.603Z,0.19
2022-10-22T07:25:16.602Z,0.18
2022-10-22T07:26:16.599Z,0.16
2022-10-22T07:27:16.615Z,0.15
2022-10-22T07:28:16.624Z,0.16
2022-10-22T07:29:16.625Z,0.16
2022-10-22T07:30:16.589Z,0.16
2022-10-22T07:31:16.607Z,0.15
2022-10-22T07:32:18.752Z,0.14
2022-10-22T07:33:16.612Z,0.13
2022-10-22T07:34:16.619Z,0.13
2022-10-22T07:35:16.606Z,0.14
2022-10-22T07:36:16.604Z,0.15
2022-10-22T07:37:16.601Z,0.15
2022-10-22T07:38:16.627Z,0.15
2022-10-22T07:39:16.597Z,0.14
2022-10-22T07:40:16.593Z,0.14
2022-10-22T07:41:16.608Z,0.14
2022-10-22T07:42:16.679Z,0.14
2022-10-22T07:43:16.623Z,0.13
2022-10-22T07:44:16.617Z,0.12
2022-10-22T07:45:16.633Z,0.12
2022-10-22T07:46:16.608Z,0.11
2022-10-22T07:47:16.601Z,0.11
2022-10-22T07:48:16.659Z,0.11
2022-10-22T07:49:16.603Z,0.09
2022-10-22T07:50:16.582Z,0.07
2022-10-22T07:51:16.598Z,0.06
2022-10-22T07:52:16.602Z,0.05
2022-10-22T07:53:16.612Z,0.06
2022-10-22T07:54:16.689Z,0.06
2022-10-22T07:55:16.609Z,0.06
2022-10-22T07:56:16.607Z,0.06
2022-10-22T07:57:16.635Z,0.06
2022-10-22T07:58:16.615Z,0.07
2022-10-22T07:59:16.612Z,0.07
2022-10-22T08:00:17.797Z,0.07
2022-10-22T08:01:16.674Z,0.08
2022-10-22T08:02:16.613Z,0.08
2022-10-22T08:03:16.640Z,0.08
2022-10-22T08:04:16.603Z,0.08
2022-10-22T08:05:16.612Z,0.09
2022-10-22T08:06:16.656Z,0.09
2022-10-22T08:07:16.670Z,0.09
2022-10-22T08:08:16.627Z,0.1
2022-10-22T08:09:16.604Z,0.1
2022-10-22T08:10:16.594Z,0.11
2022-10-22T08:11:16.606Z,0.11
2022-10-22T08:12:16.598Z,0.11
2022-10-22T08:13:16.605Z,0.11
2022-10-22T08:14:16.627Z,0.11
2022-10-22T08:15:16.601Z,0.11
2022-10-22T08:16:16.585Z,0.11
2022-10-22T08:17:16.595Z,0.12
2022-10-22T08:18:16.611Z,0.12
2022-10-22T08:19:16.602Z,0.13
2022-10-22T08:20:39.744Z,0.14
2022-10-22T08:21:37.956Z,0.16
2022-10-22T08:22:37.952Z,0.17
2022-10-22T08:23:37.991Z,0.19
2022-10-22T08:25:27.919Z,0.19
2022-10-22T08:26:41.643Z,0.23
2022-10-22T08:27:40.709Z,0.23
2022-10-22T08:28:40.531Z,0.25
2022-10-22T08:29:40.543Z,0.27
2022-10-22T08:30:40.553Z,0.27
2022-10-22T08:31:40.514Z,0.3
2022-10-22T08:32:40.517Z,0.31
2022-10-22T08:33:40.528Z,0.32
2022-10-22T08:34:40.514Z,0.33
2022-10-22T08:35:40.512Z,0.35
2022-10-22T08:36:40.518Z,0.36
2022-10-22T08:37:40.700Z,0.35
2022-10-22T08:38:40.524Z,0.34
2022-10-22T08:39:40.512Z,0.37
2022-10-22T08:40:40.562Z,0.37
2022-10-22T08:41:40.511Z,0.4
2022-10-22T08:42:40.708Z,0.41
2022-10-22T08:43:40.529Z,0.41
2022-10-22T08:44:40.529Z,0.43
2022-10-22T08:45:40.511Z,0.44
2022-10-22T08:46:40.512Z,0.46
2022-10-22T08:47:40.505Z,0.48
2022-10-22T08:48:40.518Z,0.5
2022-10-22T08:49:42.161Z,0.5
2022-10-22T08:50:40.490Z,0.5
2022-10-22T08:51:40.604Z,0.49
2022-10-22T08:52:40.813Z,0.5
2022-10-22T08:53:40.526Z,0.51
2022-10-22T08:54:40.542Z,0.54
2022-10-22T08:55:40.534Z,0.59
2022-10-22T08:56:40.509Z,0.66
2022-10-22T08:57:40.507Z,0.71
2022-10-22T08:58:40.538Z,0.68
2022-10-22T08:59:40.529Z,0.64
2022-10-22T09:00:40.509Z,0.63
2022-10-22T09:01:40.509Z,0.68
2022-10-22T09:02:40.843Z,0.71
2022-10-22T09:03:40.514Z,0.71
2022-10-22T09:04:40.502Z,0.62
2022-10-22T09:05:40.587Z,0.62
2022-10-22T09:06:40.491Z,0.53
2022-10-22T09:07:40.683Z,0.48
2022-10-22T09:08:40.564Z,0.45
2022-10-22T09:09:40.489Z,0.45
2022-10-22T09:10:40.497Z,0.45
2022-10-22T09:11:40.492Z,0.47
2022-10-22T09:12:40.488Z,0.5
2022-10-22T09:13:40.673Z,0.52
2022-10-22T09:14:40.540Z,0.52
2022-10-22T09:15:42.624Z,0.51
2022-10-22T09:16:40.791Z,0.48
2022-10-22T09:17:40.809Z,0.47
2022-10-22T09:18:40.502Z,0.48
2022-10-22T09:19:40.499Z,0.49
2022-10-22T09:20:40.487Z,0.49
2022-10-22T09:21:40.489Z,0.51
2022-10-22T09:22:40.502Z,0.52
2022-10-22T09:23:40.912Z,0.54
2022-10-22T09:24:40.489Z,0.55
2022-10-22T09:25:40.911Z,0.57
2022-10-22T09:26:40.499Z,0.58
2022-10-22T09:27:40.728Z,0.59
2022-10-22T09:28:40.519Z,0.62
2022-10-22T09:29:40.518Z,0.66
2022-10-22T09:30:40.497Z,0.68
2022-10-22T09:31:40.507Z,0.69
2022-10-22T09:32:40.762Z,0.7
2022-10-22T09:33:40.522Z,0.7
2022-10-22T09:34:40.551Z,0.7
2022-10-22T09:35:40.499Z,0.71
2022-10-22T09:36:40.506Z,0.71
2022-10-22T09:37:40.854Z,0.72
2022-10-22T09:38:40.514Z,0.73
2022-10-22T09:39:40.825Z,0.73
2022-10-22T09:40:40.499Z,0.73
2022-10-22T09:41:40.621Z,0.74
2022-10-22T09:42:40.656Z,0.75
2022-10-22T09:43:40.524Z,0.77
2022-10-22T09:44:43.684Z,0.8
2022-10-22T09:45:40.503Z,0.82
2022-10-22T09:46:40.506Z,0.85
2022-10-22T09:47:57.041Z,0.87
2022-10-22T09:48:40.504Z,0.89
2022-10-22T09:49:40.502Z,0.91
2022-10-22T09:50:40.494Z,0.92
2022-10-22T09:51:40.841Z,0.94
2022-10-22T09:52:40.864Z,0.95
2022-10-22T09:53:40.531Z,0.95
2022-10-22T09:54:40.508Z,0.95
2022-10-22T09:55:40.500Z,0.95
2022-10-22T09:56:40.500Z,0.96
2022-10-22T09:57:42.328Z,0.97
2022-10-22T09:58:40.574Z,0.99
2022-10-22T09:59:40.521Z,1
2022-10-22T10:00:40.498Z,1.02
2022-10-22T10:01:40.504Z,1.02
2022-10-22T10:02:40.502Z,1.02
2022-10-22T10:03:40.511Z,1.04
2022-10-22T10:04:40.491Z,1.05
2022-10-22T10:05:40.514Z,1.06
2022-10-22T10:06:40.622Z,1.08
2022-10-22T10:07:40.859Z,1.09
2022-10-22T10:08:40.630Z,1.09
2022-10-22T10:09:40.513Z,1.09
2022-10-22T10:10:40.504Z,1.09
2022-10-22T10:11:40.497Z,1.09
2022-10-22T10:12:40.559Z,1.1
2022-10-22T10:13:40.521Z,1.08
2022-10-22T10:14:40.518Z,1.04
2022-10-22T10:15:41.172Z,1.01
2022-10-22T10:16:40.497Z,0.98
2022-10-22T10:17:40.873Z,0.94
2022-10-22T10:18:40.503Z,0.94
2022-10-22T10:19:40.485Z,0.91
2022-10-22T10:20:40.741Z,0.87
2022-10-22T10:21:40.491Z,0.86
2022-10-22T10:22:40.889Z,0.83
2022-10-22T10:23:40.532Z,0.81
2022-10-22T10:24:40.485Z,0.8
2022-10-22T10:25:40.881Z,0.8
2022-10-22T10:26:40.489Z,0.8
2022-10-22T10:27:40.493Z,0.78
2022-10-22T10:28:40.511Z,0.79
2022-10-22T10:29:40.523Z,0.79
2022-10-22T10:30:40.487Z,0.79
2022-10-22T10:31:40.488Z,0.82
2022-10-22T10:32:40.962Z,0.85
2022-10-22T10:33:40.496Z,0.87
2022-10-22T10:34:40.506Z,0.89
2022-10-22T10:35:40.486Z,0.91
2022-10-22T10:36:40.486Z,0.94
2022-10-22T10:37:40.955Z,0.99
2022-10-22T10:38:40.782Z,1.05
2022-10-22T10:39:40.493Z,1.12
2022-10-22T10:40:40.505Z,1.21
2022-10-22T10:41:40.502Z,1.27
2022-10-22T10:42:40.969Z,1.31
2022-10-22T10:43:40.510Z,1.35
2022-10-22T10:44:40.526Z,1.39
2022-10-22T10:45:40.497Z,1.45
2022-10-22T10:46:40.509Z,1.55
2022-10-22T10:47:40.641Z,1.7
2022-10-22T10:48:40.519Z,1.84
2022-10-22T10:49:40.902Z,2.01
2022-10-22T10:50:40.502Z,2.13
2022-10-22T10:51:40.529Z,2.25
2022-10-22T10:52:40.503Z,2.39
2022-10-22T10:53:40.510Z,2.78
2022-10-22T10:54:40.510Z,2.29
2022-10-22T10:55:40.496Z,2.34
2022-10-22T10:56:40.499Z,2.46
2022-10-22T10:57:40.775Z,2.63
2022-10-22T10:58:40.510Z,2.46
2022-10-22T10:59:40.530Z,2.36
2022-10-22T11:00:40.566Z,1.99
2022-10-22T11:01:40.650Z,1.9
2022-10-22T11:02:40.497Z,1.84
2022-10-22T11:03:41.084Z,1.78
2022-10-22T11:04:40.491Z,1.68
2022-10-22T11:05:40.503Z,1.6
2022-10-22T11:06:40.517Z,1.58
2022-10-22T11:07:40.517Z,1.6
2022-10-22T11:08:40.777Z,1.6
2022-10-22T11:09:40.492Z,1.66
2022-10-22T11:10:40.497Z,1.68
2022-10-22T11:11:40.500Z,1.61
2022-10-22T11:12:40.773Z,1.5
2022-10-22T11:13:40.507Z,1.39
2022-10-22T11:14:40.521Z,1.31
2022-10-22T11:15:40.504Z,1.24
2022-10-22T11:16:40.497Z,1.19
2022-10-22T11:17:40.502Z,1.14
2022-10-22T11:18:40.561Z,1.08
2022-10-22T11:19:51.029Z,1.02
2022-10-22T11:20:40.494Z,1
2022-10-22T11:21:40.492Z,1
2022-10-22T11:22:50.524Z,1
2022-10-22T11:23:40.522Z,1.03
2022-10-22T11:24:40.498Z,1.07
2022-10-22T11:25:40.498Z,1.1
2022-10-22T11:26:40.501Z,1.12
2022-10-22T11:27:40.807Z,1.16
2022-10-22T11:28:40.504Z,1.2
2022-10-22T11:29:40.514Z,1.2
2022-10-22T11:30:40.481Z,1.27
2022-10-22T11:31:40.493Z,1.36
2022-10-22T11:32:40.739Z,1.5
2022-10-22T11:33:40.508Z,1.66
2022-10-22T11:34:40.486Z,1.84
2022-10-22T11:35:40.494Z,2.06
2022-10-22T11:36:40.487Z,2.17
2022-10-22T11:37:40.774Z,2.37
2022-10-22T11:38:40.505Z,2.35
2022-10-22T11:39:40.498Z,2.15
2022-10-22T11:40:40.490Z,2.15
2022-10-22T11:41:40.506Z,1.73
2022-10-22T11:42:40.488Z,1.59
2022-10-22T11:43:40.502Z,1.48
2022-10-22T11:44:40.499Z,1.32
2022-10-22T11:45:40.488Z,1.11
2022-10-22T11:46:40.490Z,0.98
2022-10-22T11:47:40.644Z,0.91
2022-10-22T11:48:40.561Z,0.93
2022-10-22T11:49:40.491Z,0.97
2022-10-22T11:50:40.501Z,1.01
2022-10-22T11:51:40.498Z,1.09
2022-10-22T11:52:40.504Z,1.2
2022-10-22T11:53:40.514Z,1.29
2022-10-22T11:54:40.499Z,1.3
2022-10-22T11:55:40.497Z,1.37
2022-10-22T11:56:40.509Z,1.53
2022-10-22T11:57:40.739Z,1.57
2022-10-22T11:58:40.521Z,1.47
2022-10-22T11:59:40.510Z,1.36
2022-10-22T12:00:40.486Z,1.36
2022-10-22T12:01:40.503Z,1.21
2022-10-22T12:02:40.920Z,1.16
2022-10-22T12:03:40.520Z,1.13
2022-10-22T12:04:40.533Z,1.13
2022-10-22T12:05:40.501Z,1.14
2022-10-22T12:06:40.504Z,1.16
2022-10-22T12:07:40.498Z,1.19
2022-10-22T12:08:40.521Z,1.19
2022-10-22T12:09:40.541Z,1.22
2022-10-22T12:10:40.488Z,1.23
2022-10-22T12:11:40.493Z,1.25
2022-10-22T12:12:40.779Z,1.29
2022-10-22T12:13:40.509Z,1.34
2022-10-22T12:14:40.513Z,1.39
2022-10-22T12:15:40.519Z,1.47
2022-10-22T12:16:56.560Z,1.53
2022-10-22T12:17:40.502Z,1.55
2022-10-22T12:18:40.522Z,1.57
2022-10-22T12:19:40.496Z,1.65
2022-10-22T12:20:40.490Z,2.88
2022-10-22T12:21:40.497Z,2.38
2022-10-22T12:22:40.833Z,1.65
2022-10-22T12:23:40.506Z,1.47
2022-10-22T12:24:40.507Z,1.42
2022-10-22T12:25:40.502Z,1.41
2022-10-22T12:26:40.500Z,1.38
2022-10-22T12:27:40.828Z,1.48
2022-10-22T12:28:40.532Z,1.58
2022-10-22T12:29:40.518Z,1.67
2022-10-22T12:30:40.571Z,1.75
2022-10-22T12:31:40.492Z,1.83
2022-10-22T12:32:40.499Z,1.92
2022-10-22T12:33:40.527Z,2.02
2022-10-22T12:34:40.544Z,2.04
2022-10-22T12:35:40.571Z,2.06
2022-10-22T12:36:40.506Z,2.26
2022-10-22T12:37:40.785Z,3.58
2022-10-22T12:38:40.517Z,2.3
2022-10-22T12:39:40.718Z,2.14
2022-10-22T12:40:44.447Z,1.85
2022-10-22T12:41:40.499Z,1.88
2022-10-22T12:42:40.503Z,1.98
2022-10-22T12:43:40.506Z,1.98
2022-10-22T12:44:40.514Z,1.96
2022-10-22T12:45:40.493Z,2.19
2022-10-22T12:46:40.480Z,2.35
2022-10-22T12:47:40.791Z,2.82
2022-10-22T12:48:40.501Z,3.55
2022-10-22T12:49:40.490Z,1.89
2022-10-22T12:50:40.576Z,1.89
2022-10-22T12:51:40.489Z,1.49
2022-10-22T12:52:40.715Z,1.48
2022-10-22T12:53:40.510Z,1.51
2022-10-22T12:54:40.480Z,1.58
2022-10-22T12:55:40.486Z,1.9
2022-10-22T12:56:40.488Z,1.93
2022-10-22T12:57:40.491Z,1.87
2022-10-22T12:58:40.505Z,1.77
2022-10-22T12:59:41.059Z,1.66
2022-10-22T13:00:40.513Z,1.41
2022-10-22T13:01:40.488Z,1.31
2022-10-22T13:02:40.820Z,1.25
2022-10-22T13:03:40.519Z,1.21
2022-10-22T13:04:40.494Z,1.22
2022-10-22T13:05:40.511Z,1.27
2022-10-22T13:06:40.496Z,1.25
2022-10-22T13:07:40.488Z,1.19
2022-10-22T13:08:40.550Z,1.19
2022-10-22T13:09:40.496Z,1.06
2022-10-22T13:10:40.494Z,0.97
2022-10-22T13:11:43.236Z,0.88
2022-10-22T13:12:40.769Z,0.79
2022-10-22T13:13:40.939Z,0.71
2022-10-22T13:14:40.509Z,0.64
2022-10-22T13:15:40.497Z,0.59
2022-10-22T13:16:40.496Z,0.57
2022-10-22T13:17:40.876Z,0.55
2022-10-22T13:18:40.525Z,0.52
2022-10-22T13:19:40.494Z,0.48
2022-10-22T13:20:40.491Z,0.48
2022-10-22T13:21:40.509Z,0.44
2022-10-22T13:22:40.503Z,0.41
2022-10-22T13:23:40.510Z,0.4
2022-10-22T13:24:40.497Z,0.39
2022-10-22T13:25:40.502Z,0.37
2022-10-22T13:26:40.565Z,0.36
2022-10-22T13:27:40.915Z,0.33
2022-10-22T13:28:40.514Z,0.31
2022-10-22T13:29:40.509Z,0.28
2022-10-22T13:30:40.484Z,0.28
2022-10-22T13:31:40.493Z,0.25
2022-10-22T13:32:40.493Z,0.24
2022-10-22T13:33:40.575Z,0.23
2022-10-22T13:34:40.501Z,0.23
2022-10-22T13:35:40.494Z,0.24
2022-10-22T13:36:40.497Z,0.25
2022-10-22T13:37:40.836Z,0.27
2022-10-22T13:38:40.529Z,0.27
2022-10-22T13:39:40.508Z,0.27
2022-10-22T13:40:40.484Z,0.27
2022-10-22T13:42:40.732Z,0.23
2022-10-22T13:43:40.511Z,0.22
2022-10-22T13:44:40.518Z,0.22
2022-10-22T13:45:40.627Z,0.22
2022-10-22T13:46:40.497Z,0.23
2022-10-22T13:47:40.499Z,0.23
2022-10-22T13:48:40.500Z,0.25
2022-10-22T13:49:40.499Z,0.26
2022-10-22T13:50:40.576Z,0.26
2022-10-22T13:51:40.576Z,0.29
2022-10-22T13:52:40.662Z,0.31
2022-10-22T13:53:40.516Z,0.33
2022-10-22T13:54:40.491Z,0.35
2022-10-22T13:55:40.501Z,0.38
2022-10-22T13:56:40.503Z,0.44
2022-10-22T13:57:40.502Z,0.48
2022-10-22T13:58:40.512Z,0.54
2022-10-22T13:59:40.521Z,0.62